createdAt,value
2022-08-07T00:00:22.759Z,100279.47
2022-08-07T00:02:56.835Z,100279.34
2022-08-07T00:05:27.780Z,100276.31
2022-08-07T00:08:02.128Z,100277.75
2022-08-07T00:10:33.364Z,100278.41
2022-08-07T00:13:23.934Z,100267.56
2022-08-07T00:15:56.881Z,100274.88
2022-08-07T00:18:30.263Z,100274.53
2022-08-07T00:21:04.031Z,100280.44
2022-08-07T00:23:40.993Z,100268.19
2022-08-07T00:26:49.379Z,100269.63
2022-08-07T00:29:05.331Z,100267.75
2022-08-07T00:31:38.417Z,100276.63
2022-08-07T00:34:12.935Z,100265.06
2022-08-07T00:36:47.001Z,100271.19
2022-08-07T00:39:20.492Z,100271.91
2022-08-07T00:42:02.369Z,100278.81
2022-08-07T00:44:38.396Z,100276.06
2022-08-07T00:47:15.867Z,100275.63
2022-08-07T00:50:20.420Z,100273.34
2022-08-07T00:52:54.235Z,100282.06
2022-08-07T00:56:02.736Z,100286.88
2022-08-07T00:58:16.051Z,100275.03
2022-08-07T01:00:53.595Z,100272.78
2022-08-07T01:03:54.743Z,100272.63
2022-08-07T01:06:15.798Z,100269.28
2022-08-07T01:08:53.252Z,100246.16
2022-08-07T01:12:23.866Z,100263.84
2022-08-07T01:14:15.365Z,100264.38
2022-08-07T01:16:48.427Z,100266.09
2022-08-07T01:19:20.840Z,100254.75
2022-08-07T01:21:55.630Z,100258.00
2022-08-07T01:24:26.542Z,100251.81
2022-08-07T01:26:58.050Z,100248.84
2022-08-07T01:29:33.713Z,100249.22
2022-08-07T01:32:12.476Z,100236.88
2022-08-07T01:34:47.218Z,100242.56
2022-08-07T01:37:20.209Z,100240.88
2022-08-07T01:39:51.587Z,100233.16
2022-08-07T01:42:38.884Z,100225.38
2022-08-07T01:45:17.940Z,100227.28
2022-08-07T01:48:18.213Z,100224.44
2022-08-07T01:50:43.010Z,100206.50
2022-08-07T01:53:20.678Z,100227.53
2022-08-07T01:55:56.112Z,100197.97
2022-08-07T01:58:33.239Z,100223.81
2022-08-07T02:01:25.700Z,100204.50
2022-08-07T02:04:06.417Z,100196.63
2022-08-07T02:06:38.847Z,100194.44
2022-08-07T02:09:51.646Z,100180.81
2022-08-07T02:12:19.436Z,100180.28
2022-08-07T02:15:01.378Z,100175.72
2022-08-07T02:17:37.593Z,100164.81
2022-08-07T02:20:19.716Z,100155.63
2022-08-07T02:22:56.039Z,100160.13
2022-08-07T02:26:10.243Z,100158.78
2022-08-07T02:28:24.831Z,100160.09
2022-08-07T02:30:57.840Z,100156.19
2022-08-07T02:33:42.122Z,100161.91
2022-08-07T02:36:30.296Z,100123.38
2022-08-07T02:39:15.980Z,100154.72
2022-08-07T02:41:54.836Z,100159.84
2022-08-07T02:44:34.492Z,100155.81
2022-08-07T02:47:06.585Z,100157.34
2022-08-07T02:49:57.466Z,100136.66
2022-08-07T02:52:35.093Z,100150.09
2022-08-07T02:55:27.251Z,100151.97
2022-08-07T02:58:05.255Z,100157.78
2022-08-07T03:00:39.246Z,100160.94
2022-08-07T03:03:13.633Z,100164.72
2022-08-07T03:05:44.567Z,100166.94
2022-08-07T03:08:16.606Z,100163.81
2022-08-07T03:10:48.851Z,100161.53
2022-08-07T03:13:22.232Z,100166.47
2022-08-07T03:15:58.260Z,100171.59
2022-08-07T03:18:34.808Z,100167.41
2022-08-07T03:21:11.377Z,100152.47
2022-08-07T03:24:20.195Z,100143.22
2022-08-07T03:26:50.938Z,100112.66
2022-08-07T03:29:31.127Z,100150.88
2022-08-07T03:32:12.816Z,100151.22
2022-08-07T03:35:00.719Z,100161.16
2022-08-07T03:37:46.455Z,100158.31
2022-08-07T03:40:30.741Z,100146.34
2022-08-07T03:43:10.086Z,100147.09
2022-08-07T03:45:48.574Z,100145.56
2022-08-07T03:48:19.617Z,100144.81
2022-08-07T03:50:55.985Z,100143.41
2022-08-07T03:53:50.167Z,100130.72
2022-08-07T03:56:33.497Z,100130.25
2022-08-07T03:59:09.455Z,100144.47
2022-08-07T04:01:47.600Z,100147.97
2022-08-07T04:04:20.921Z,100149.38
2022-08-07T04:06:52.559Z,100131.22
2022-08-07T04:09:24.974Z,100144.94
2022-08-07T04:12:24.812Z,100173.13
2022-08-07T04:14:54.905Z,100188.94
2022-08-07T04:18:56.560Z,100195.66
2022-08-07T04:20:20.503Z,100201.69
2022-08-07T04:22:53.548Z,100219.38
2022-08-07T04:25:29.235Z,100218.31
2022-08-07T04:28:01.040Z,100218.69
2022-08-07T04:30:39.507Z,100209.84
2022-08-07T04:33:18.497Z,100221.66
2022-08-07T04:35:50.606Z,100207.78
2022-08-07T04:38:22.469Z,100186.22
2022-08-07T04:40:56.865Z,100199.88
2022-08-07T04:44:11.862Z,100186.41
2022-08-07T04:46:34.855Z,100173.75
2022-08-07T04:49:17.848Z,100169.94
2022-08-07T04:51:59.282Z,100161.59
2022-08-07T04:54:37.254Z,100149.88
2022-08-07T04:58:09.386Z,100147.25
2022-08-07T05:00:19.003Z,100135.94
2022-08-07T05:03:17.302Z,100111.56
2022-08-07T05:06:19.237Z,100112.78
2022-08-07T05:09:01.470Z,100113.34
2022-08-07T05:11:57.056Z,100117.84
2022-08-07T05:14:54.448Z,100102.81
2022-08-07T05:18:00.648Z,100117.28
2022-08-07T05:20:18.940Z,100124.28
2022-08-07T05:22:54.429Z,100130.84
2022-08-07T05:25:54.617Z,100138.06
2022-08-07T05:28:22.591Z,100133.56
2022-08-07T05:30:55.737Z,100145.34
2022-08-07T05:33:29.906Z,100144.59
2022-08-07T05:39:00.017Z,100163.50
2022-08-07T05:41:24.089Z,100164.75
2022-08-07T05:44:16.718Z,100171.41
2022-08-07T05:47:01.001Z,100166.50
2022-08-07T05:49:40.519Z,100172.72
2022-08-07T05:52:11.991Z,100163.22
2022-08-07T05:54:55.337Z,100156.94
2022-08-07T05:57:30.356Z,100147.97
2022-08-07T06:00:05.612Z,100133.25
2022-08-07T06:02:39.009Z,100142.16
2022-08-07T06:05:15.872Z,100129.44
2022-08-07T06:08:13.536Z,100132.00
2022-08-07T06:10:40.174Z,100128.59
2022-08-07T06:13:15.494Z,100124.72
2022-08-07T06:15:49.945Z,100099.84
2022-08-07T06:18:22.315Z,100116.34
2022-08-07T06:22:11.841Z,100125.28
2022-08-07T06:24:50.730Z,100121.50
2022-08-07T06:26:44.746Z,100123.19
2022-08-07T06:29:15.390Z,100119.78
2022-08-07T06:31:49.597Z,100116.59
2022-08-07T06:34:21.600Z,100102.00
2022-08-07T06:36:52.697Z,100115.91
2022-08-07T06:40:16.465Z,100093.91
2022-08-07T06:42:33.075Z,100117.00
2022-08-07T06:45:07.123Z,100121.03
2022-08-07T06:47:57.729Z,100126.59
2022-08-07T06:50:30.822Z,100132.44
2022-08-07T06:53:04.174Z,100136.75
2022-08-07T06:55:52.634Z,100132.63
2022-08-07T06:58:32.067Z,100134.38
2022-08-07T07:01:05.263Z,100129.53
2022-08-07T07:03:48.786Z,100122.63
2022-08-07T07:06:26.113Z,100136.56
2022-08-07T07:08:58.062Z,100131.13
2022-08-07T07:12:08.552Z,100138.56
2022-08-07T07:14:24.653Z,100130.28
2022-08-07T07:16:59.604Z,100127.28
2022-08-07T07:19:56.940Z,100128.44
2022-08-07T07:22:35.955Z,100120.91
2022-08-07T07:26:30.862Z,100124.28
2022-08-07T07:28:42.176Z,100124.50
2022-08-07T07:31:17.357Z,100127.38
2022-08-07T07:33:57.367Z,100135.38
2022-08-07T07:36:32.374Z,100115.13
2022-08-07T07:39:05.786Z,100134.91
2022-08-07T07:41:50.694Z,100141.50
2022-08-07T07:44:31.844Z,100139.28
2022-08-07T07:47:13.936Z,100145.97
2022-08-07T07:50:34.944Z,100139.09
2022-08-07T07:52:48.542Z,100129.41
2022-08-07T07:55:22.127Z,100127.16
2022-08-07T07:57:58.146Z,100116.16
2022-08-07T08:00:34.208Z,100115.22
2022-08-07T08:03:16.630Z,100124.16
2022-08-07T08:05:55.016Z,100100.47
2022-08-07T08:08:35.291Z,100124.75
2022-08-07T08:11:16.110Z,100128.38
2022-08-07T08:13:53.971Z,100108.88
2022-08-07T08:16:31.565Z,100119.66
2022-08-07T08:19:17.366Z,100122.38
2022-08-07T08:22:08.117Z,100118.13
2022-08-07T08:25:18.386Z,100121.13
2022-08-07T08:28:01.903Z,100130.88
2022-08-07T08:30:37.600Z,100129.38
2022-08-07T08:33:19.468Z,100119.13
2022-08-07T08:35:56.608Z,100124.03
2022-08-07T08:38:33.308Z,100124.31
2022-08-07T08:41:18.014Z,100128.09
2022-08-07T08:43:58.977Z,100127.34
2022-08-07T08:46:41.578Z,100127.56
2022-08-07T08:49:33.116Z,100133.28
2022-08-07T08:52:16.643Z,100125.94
2022-08-07T08:54:55.517Z,100125.66
2022-08-07T08:57:35.293Z,100120.94
2022-08-07T09:00:09.394Z,100113.53
2022-08-07T09:02:49.599Z,100120.56
2022-08-07T09:05:40.948Z,100126.44
2022-08-07T09:08:28.145Z,100130.41
2022-08-07T09:11:14.057Z,100131.44
2022-08-07T09:14:07.035Z,100117.47
2022-08-07T09:16:51.888Z,100133.22
2022-08-07T09:19:51.133Z,100144.72
2022-08-07T09:24:31.522Z,100153.47
2022-08-07T09:25:54.372Z,100155.06
2022-08-07T09:30:05.932Z,100160.91
2022-08-07T09:31:39.677Z,100161.41
2022-08-07T09:34:27.651Z,100170.84
2022-08-07T09:37:04.730Z,100169.47
2022-08-07T09:39:54.050Z,100151.16
2022-08-07T09:42:51.720Z,100179.06
2022-08-07T09:47:24.970Z,100180.28
2022-08-07T09:48:55.925Z,100180.38
2022-08-07T09:52:15.299Z,100190.97
2022-08-07T09:54:48.838Z,100165.47
2022-08-07T09:57:50.784Z,100187.19
2022-08-07T10:00:29.916Z,100188.53
2022-08-07T10:04:04.792Z,100195.28
2022-08-07T10:06:55.738Z,100209.38
2022-08-07T10:10:00.282Z,100215.69
2022-08-07T10:12:56.934Z,100213.97
2022-08-07T10:15:57.558Z,100213.97
2022-08-07T10:18:53.962Z,100198.72
2022-08-07T10:22:12.514Z,100210.84
2022-08-07T10:24:48.916Z,100209.16
2022-08-07T10:27:46.461Z,100211.97
2022-08-07T10:30:21.428Z,100228.94
2022-08-07T10:34:06.136Z,100237.97
2022-08-07T10:36:31.196Z,100232.94
2022-08-07T10:39:19.607Z,100253.84
2022-08-07T10:42:09.146Z,100261.66
2022-08-07T10:44:50.053Z,100265.22
2022-08-07T10:47:53.157Z,100257.59
2022-08-07T10:50:32.815Z,100285.78
2022-08-07T10:53:10.810Z,100283.91
2022-08-07T10:55:54.608Z,100285.78
2022-08-07T10:58:41.970Z,100279.88
2022-08-07T11:01:51.629Z,100286.78
2022-08-07T11:04:45.590Z,100287.81
2022-08-07T11:08:01.246Z,100279.88
2022-08-07T11:10:34.617Z,100275.41
2022-08-07T11:13:16.859Z,100272.69
2022-08-07T11:16:11.898Z,100275.19
2022-08-07T11:18:50.726Z,100268.34
2022-08-07T11:21:32.213Z,100264.94
2022-08-07T11:24:12.056Z,100270.22
2022-08-07T11:26:50.278Z,100252.91
2022-08-07T11:29:43.047Z,100261.50
2022-08-07T11:32:26.000Z,100255.53
2022-08-07T11:35:00.036Z,100249.78
2022-08-07T11:38:10.359Z,100260.06
2022-08-07T11:40:54.239Z,100254.91
2022-08-07T11:43:41.159Z,100249.63
2022-08-07T11:46:48.796Z,100247.38
2022-08-07T11:50:30.029Z,100247.59
2022-08-07T11:53:05.004Z,100244.16
2022-08-07T11:56:09.254Z,100257.53
2022-08-07T11:58:59.974Z,100247.25
2022-08-07T12:01:59.963Z,100254.44
2022-08-07T12:04:45.834Z,100251.84
2022-08-07T12:07:27.129Z,100251.16
2022-08-07T12:10:05.686Z,100236.88
2022-08-07T12:12:43.687Z,100253.28
2022-08-07T12:15:57.987Z,100239.16
2022-08-07T12:18:22.323Z,100234.00
2022-08-07T12:21:21.087Z,100235.88
2022-08-07T12:24:38.103Z,100228.84
2022-08-07T12:27:16.242Z,100225.56
2022-08-07T12:29:56.530Z,100208.44
2022-08-07T12:32:33.661Z,100218.75
2022-08-07T12:35:08.305Z,100217.97
2022-08-07T12:38:11.517Z,100208.59
2022-08-07T12:40:47.756Z,100202.53
2022-08-07T12:44:03.401Z,100178.63
2022-08-07T12:46:32.524Z,100194.03
2022-08-07T12:49:39.813Z,100197.81
2022-08-07T12:52:12.195Z,100202.47
2022-08-07T12:54:55.017Z,100193.91
2022-08-07T12:57:50.914Z,100199.31
2022-08-07T13:00:32.785Z,100186.59
2022-08-07T13:04:00.508Z,100194.50
2022-08-07T13:06:32.808Z,100185.72
2022-08-07T13:10:19.705Z,100184.88
2022-08-07T13:12:15.410Z,100184.88
2022-08-07T13:15:01.736Z,100183.19
2022-08-07T13:17:40.898Z,100187.75
2022-08-07T13:20:27.552Z,100184.31
2022-08-07T13:24:02.010Z,100165.16
2022-08-07T13:26:05.573Z,100160.03
2022-08-07T13:28:48.959Z,100165.16
2022-08-07T13:31:32.097Z,100160.03
2022-08-07T13:34:30.480Z,100161.75
2022-08-07T13:37:20.096Z,100160.03
2022-08-07T13:40:36.305Z,100156.59
2022-08-07T13:42:54.112Z,100154.16
2022-08-07T13:46:11.284Z,100153.31
2022-08-07T13:48:27.497Z,100144.75
2022-08-07T13:51:27.386Z,100129.84
2022-08-07T13:54:03.270Z,100129.22
2022-08-07T13:56:41.394Z,100127.63
2022-08-07T13:59:27.122Z,100139.78
2022-08-07T14:02:08.594Z,100143.31
2022-08-07T14:04:54.768Z,100133.59
2022-08-07T14:07:29.166Z,100137.94
2022-08-07T14:10:21.682Z,100106.91
2022-08-07T14:13:00.556Z,100128.91
2022-08-07T14:15:35.989Z,100132.50
2022-08-07T14:18:23.990Z,100082.66
2022-08-07T14:21:21.101Z,100122.94
2022-08-07T14:24:02.420Z,100123.94
2022-08-07T14:26:40.743Z,100130.91
2022-08-07T14:30:08.059Z,100124.72
2022-08-07T14:32:16.781Z,100125.47
2022-08-07T14:34:52.692Z,100134.19
2022-08-07T14:37:36.060Z,100137.63
2022-08-07T14:40:19.625Z,100133.19
2022-08-07T14:43:55.551Z,100122.63
2022-08-07T14:45:54.928Z,100127.84
2022-08-07T14:48:32.639Z,100123.34
2022-08-07T14:51:16.296Z,100118.94
2022-08-07T14:54:30.557Z,100121.34
2022-08-07T14:56:45.092Z,100114.78
2022-08-07T15:00:06.220Z,100138.06
2022-08-07T15:02:33.062Z,100128.50
2022-08-07T15:05:19.595Z,100102.50
2022-08-07T15:07:52.252Z,100120.41
2022-08-07T15:13:23.313Z,100096.78
2022-08-07T15:16:05.098Z,100123.47
2022-08-07T15:18:53.080Z,100113.22
2022-08-07T15:21:44.467Z,100127.06
2022-08-07T15:25:13.486Z,100080.81
2022-08-07T15:27:19.316Z,100110.34
2022-08-07T15:30:06.580Z,100129.06
2022-08-07T15:33:03.898Z,100130.84
2022-08-07T15:36:01.386Z,100141.47
2022-08-07T15:38:51.919Z,100135.34
2022-08-07T15:42:42.406Z,100127.34
2022-08-07T15:44:24.018Z,100128.06
2022-08-07T15:47:03.670Z,100101.06
2022-08-07T15:50:05.584Z,100074.97
2022-08-07T15:52:36.771Z,100081.78
2022-08-07T15:55:12.138Z,100081.69
2022-08-07T15:57:49.452Z,100071.22
2022-08-07T16:00:31.863Z,100079.47
2022-08-07T16:03:20.908Z,100079.22
2022-08-07T16:06:06.299Z,100071.44
2022-08-07T16:08:39.003Z,100065.09
2022-08-07T16:11:27.049Z,100056.38
2022-08-07T16:14:19.195Z,100045.81
2022-08-07T16:16:58.719Z,100028.97
2022-08-07T16:20:02.805Z,100055.59
2022-08-07T16:25:57.656Z,100040.06
2022-08-07T16:30:05.747Z,100047.97
2022-08-07T16:31:57.671Z,100041.13
2022-08-07T16:34:45.500Z,100003.03
2022-08-07T16:38:05.293Z,100023.34
2022-08-07T16:41:01.621Z,100007.84
2022-08-07T16:44:46.045Z,100005.88
2022-08-07T16:47:40.249Z,100011.16
2022-08-07T16:50:37.216Z,100008.53
2022-08-07T16:53:48.256Z,99954.53
2022-08-07T16:56:27.412Z,100005.88
2022-08-07T16:59:15.115Z,99997.28
2022-08-07T17:02:02.876Z,99997.16
2022-08-07T17:04:51.077Z,99995.59
2022-08-07T17:07:55.684Z,100002.72
2022-08-07T17:10:37.353Z,99992.47
2022-08-07T17:14:19.615Z,99988.75
2022-08-07T17:16:55.970Z,99987.03
2022-08-07T17:20:02.056Z,99997.59
2022-08-07T17:22:37.726Z,100000.25
2022-08-07T17:25:16.299Z,99991.63
2022-08-07T17:27:59.861Z,99987.34
2022-08-07T17:30:57.499Z,99985.63
2022-08-07T17:34:10.084Z,99980.34
2022-08-07T17:36:29.476Z,99988.19
2022-08-07T17:39:15.555Z,99941.00
2022-08-07T17:42:03.878Z,99991.75
2022-08-07T17:44:49.517Z,99981.13
2022-08-07T17:47:38.078Z,99976.78
2022-08-07T17:50:16.391Z,99962.81
2022-08-07T17:52:55.012Z,99966.34
2022-08-07T17:56:00.279Z,99953.25
2022-08-07T17:58:34.498Z,99966.66
2022-08-07T18:01:21.490Z,99969.31
2022-08-07T18:04:16.738Z,99945.81
2022-08-07T18:06:57.976Z,99946.75
2022-08-07T18:10:06.047Z,99945.06
2022-08-07T18:12:54.142Z,99909.31
2022-08-07T18:15:33.067Z,99945.28
2022-08-07T18:18:46.459Z,99946.13
2022-08-07T18:21:42.166Z,99939.16
2022-08-07T18:24:07.347Z,99937.28
2022-08-07T18:26:58.188Z,99932.00
2022-08-07T18:30:06.226Z,99935.41
2022-08-07T18:32:54.825Z,99924.88
2022-08-07T18:35:59.779Z,99929.22
2022-08-07T18:38:56.988Z,99930.94
2022-08-07T18:41:46.150Z,99914.16
2022-08-07T18:45:40.243Z,99930.72
2022-08-07T18:47:44.801Z,99921.94
2022-08-07T18:50:45.671Z,99920.00
2022-08-07T18:53:36.755Z,99924.28
2022-08-07T18:56:19.049Z,99922.41
2022-08-07T18:59:03.962Z,99927.53
2022-08-07T19:02:18.018Z,99924.00
2022-08-07T19:04:57.874Z,99923.09
2022-08-07T19:07:37.748Z,99918.56
2022-08-07T19:10:31.176Z,99906.25
2022-08-07T19:13:11.778Z,99915.97
2022-08-07T19:16:05.929Z,99906.13
2022-08-07T19:18:47.562Z,99895.56
2022-08-07T19:21:44.207Z,99890.28
2022-08-07T19:24:30.875Z,99896.31
2022-08-07T19:28:30.033Z,99898.97
2022-08-07T19:31:06.043Z,99904.13
2022-08-07T19:33:00.397Z,99914.53
2022-08-07T19:35:34.129Z,99917.06
2022-08-07T19:38:16.084Z,99911.72
2022-08-07T19:40:51.494Z,99908.28
2022-08-07T19:43:43.990Z,99906.38
2022-08-07T19:46:20.473Z,99896.66
2022-08-07T19:49:03.722Z,99907.78
2022-08-07T19:51:52.926Z,99862.38
2022-08-07T19:54:44.595Z,99899.75
2022-08-07T19:57:59.946Z,99901.31
2022-08-07T20:00:29.212Z,99900.16
2022-08-07T20:03:06.694Z,99887.34
2022-08-07T20:06:02.347Z,99903.41
2022-08-07T20:08:35.963Z,99907.69
2022-08-07T20:11:10.542Z,99898.84
2022-08-07T20:13:47.692Z,99887.00
2022-08-07T20:16:35.265Z,99891.81
2022-08-07T20:19:10.042Z,99905.59
2022-08-07T20:21:47.141Z,99908.91
2022-08-07T20:24:23.285Z,99903.63
2022-08-07T20:26:56.273Z,99893.91
2022-08-07T20:29:48.003Z,99901.75
2022-08-07T20:32:26.456Z,99894.63
2022-08-07T20:35:16.267Z,99895.41
2022-08-07T20:37:59.113Z,99890.75
2022-08-07T20:40:34.630Z,99890.59
2022-08-07T20:43:09.505Z,99884.13
2022-08-07T20:46:26.961Z,99874.41
2022-08-07T20:48:37.563Z,99865.38
2022-08-07T20:51:10.446Z,99852.94
2022-08-07T20:54:02.882Z,99842.38
2022-08-07T20:56:41.963Z,99841.94
2022-08-07T20:59:27.118Z,99834.69
2022-08-07T21:02:38.358Z,99830.28
2022-08-07T21:05:16.803Z,99821.41
2022-08-07T21:07:49.913Z,99826.75
2022-08-07T21:10:29.577Z,99807.06
2022-08-07T21:13:03.995Z,99826.03
2022-08-07T21:15:47.647Z,99816.53
2022-08-07T21:18:25.709Z,99814.13
2022-08-07T21:21:03.031Z,99825.47
2022-08-07T21:23:50.199Z,99778.34
2022-08-07T21:26:42.897Z,99819.53
2022-08-07T21:29:20.542Z,99799.03
2022-08-07T21:32:44.257Z,99819.66
2022-08-07T21:35:01.904Z,99820.63
2022-08-07T21:37:58.580Z,99816.41
2022-08-07T21:40:39.678Z,99821.63
2022-08-07T21:43:13.936Z,99793.59
2022-08-07T21:46:08.568Z,99797.00
2022-08-07T21:48:48.239Z,99793.41
2022-08-07T21:51:51.178Z,99782.84
2022-08-07T21:54:37.376Z,99768.66
2022-08-07T21:57:39.426Z,99757.94
2022-08-07T22:00:22.664Z,99745.66
2022-08-07T22:03:03.567Z,99735.09
2022-08-07T22:05:48.512Z,99730.31
2022-08-07T22:08:24.953Z,99737.50
2022-08-07T22:11:02.503Z,99726.56
2022-08-07T22:13:51.901Z,99731.59
2022-08-07T22:16:42.806Z,99728.34
2022-08-07T22:19:29.633Z,99695.69
2022-08-07T22:22:17.604Z,99681.19
2022-08-07T22:25:03.620Z,99679.44
2022-08-07T22:28:07.717Z,99677.59
2022-08-07T22:30:43.091Z,99666.69
2022-08-07T22:33:53.179Z,99670.78
2022-08-07T22:36:38.511Z,99683.72
2022-08-07T22:39:23.554Z,99679.78
2022-08-07T22:42:04.062Z,99681.31
2022-08-07T22:44:58.785Z,99698.72
2022-08-07T22:47:49.437Z,99696.47
2022-08-07T22:50:58.825Z,99666.25
2022-08-07T22:54:07.801Z,99658.91
2022-08-07T22:56:53.967Z,99676.84
2022-08-07T23:00:03.087Z,99670.28
2022-08-07T23:03:09.427Z,99667.56
2022-08-07T23:06:15.496Z,99655.94
2022-08-07T23:10:06.080Z,99648.75
2022-08-07T23:12:02.627Z,99619.97
2022-08-07T23:14:49.167Z,99663.41
2022-08-07T23:17:36.595Z,99675.53
2022-08-07T23:20:40.474Z,99664.44
2022-08-07T23:24:05.534Z,99670.59
2022-08-07T23:26:56.203Z,99664.25
2022-08-07T23:30:35.774Z,99621.47
2022-08-07T23:34:22.710Z,99651.59
2022-08-07T23:36:05.184Z,99663.72
2022-08-07T23:38:56.160Z,99666.72
2022-08-07T23:42:01.599Z,99667.88
2022-08-07T23:45:00.519Z,99649.72
2022-08-07T23:48:01.960Z,99634.75
2022-08-07T23:50:42.217Z,99619.78
2022-08-07T23:53:49.875Z,99608.03
2022-08-07T23:56:31.223Z,99601.16
